Time;durP1;ratioP1;P1;durP2;ratioP2;P2;SDS_P1;SDS_P2;PMS_P1;PMS_P2;Temp;Humidity;BMP_temperature;BMP_pressure;BME280_temperature;BME280_humidity;BME280_pressure;Samples;Min_cycle;Max_cycle;Signal;HPM_P1;HPM_P2
2023/03/10 00:01:19;;;;;;;76.25;50.35;;;18.90;57.90;;;;;;5010066;27;87234;-47
2023/03/10 00:03:45;;;;;;;75.82;49.88;;;19.00;58.00;;;;;;5014277;27;86175;-47
2023/03/10 00:06:13;;;;;;;75.55;50.10;;;18.90;58.20;;;;;;5018351;27;85801;-51
2023/03/10 00:08:38;;;;;;;76.40;50.05;;;18.80;58.40;;;;;;5017617;27;85905;-46
2023/03/10 00:11:05;;;;;;;75.43;50.05;;;18.80;58.50;;;;;;5017879;27;86009;-50
2023/03/10 00:13:30;;;;;;;76.10;49.65;;;18.70;58.50;;;;;;5020365;27;86992;-49
2023/03/10 00:15:56;;;;;;;77.07;49.95;;;18.70;58.70;;;;;;5019020;27;86358;-49
2023/03/10 00:18:22;;;;;;;75.45;49.65;;;18.60;58.70;;;;;;5020111;27;86234;-49
2023/03/10 00:20:53;;;;;;;75.38;49.85;;;18.60;58.90;;;;;;5019527;27;85646;-48
2023/03/10 00:23:20;;;;;;;74.97;49.95;;;18.50;59.00;;;;;;5021207;27;85593;-48
2023/03/10 00:25:57;;;;;;;75.57;50.00;;;18.50;59.00;;;;;;5020912;27;87638;-50
2023/03/10 00:28:23;;;;;;;75.15;49.97;;;18.40;59.10;;;;;;5020697;27;85626;-48
2023/03/10 00:31:00;;;;;;;76.05;49.65;;;18.50;59.10;;;;;;5021347;27;85857;-48
2023/03/10 00:33:26;;;;;;;74.82;49.72;;;18.40;59.20;;;;;;5020375;27;85405;-50
2023/03/10 00:36:04;;;;;;;74.68;49.75;;;18.40;59.40;;;;;;5020776;27;85532;-50
2023/03/10 00:38:29;;;;;;;75.30;50.15;;;18.30;59.40;;;;;;5012834;27;85640;-47
2023/03/10 00:41:00;;;;;;;76.00;49.83;;;18.30;59.60;;;;;;5021182;27;85546;-48
2023/03/10 00:43:26;;;;;;;75.85;50.05;;;18.20;59.70;;;;;;5013364;27;85921;-46
2023/03/10 00:45:52;;;;;;;75.47;50.05;;;18.20;59.60;;;;;;5017643;27;88545;-48
2023/03/10 00:48:17;;;;;;;76.28;49.85;;;18.20;60.30;;;;;;5014073;27;87547;-48
2023/03/10 00:50:43;;;;;;;75.85;49.60;;;18.20;59.80;;;;;;5014721;27;87200;-46
2023/03/10 00:53:09;;;;;;;74.47;49.65;;;18.10;59.80;;;;;;5016871;27;86166;-48
2023/03/10 00:55:34;;;;;;;76.40;49.70;;;18.10;59.80;;;;;;5018833;27;85916;-47
2023/03/10 00:58:00;;;;;;;76.25;49.95;;;18.10;59.90;;;;;;5012989;27;86304;-48
2023/03/10 01:00:26;;;;;;;75.50;49.95;;;18.10;59.80;;;;;;5000618;27;86768;-50
2023/03/10 01:02:51;;;;;;;75.47;49.50;;;18.10;59.80;;;;;;5011344;27;86103;-47
2023/03/10 01:05:17;;;;;;;75.53;49.83;;;18.00;60.00;;;;;;5012260;27;86819;-47
2023/03/10 01:07:43;;;;;;;75.53;49.65;;;18.10;60.00;;;;;;5023072;27;86445;-47
2023/03/10 01:10:10;;;;;;;77.35;50.00;;;18.00;60.00;;;;;;5013745;27;85561;-50
2023/03/10 01:12:36;;;;;;;74.70;49.75;;;17.90;60.10;;;;;;5008175;27;86486;-50
2023/03/10 01:15:02;;;;;;;75.03;49.65;;;18.00;60.00;;;;;;5009706;27;86878;-47
2023/03/10 01:17:28;;;;;;;75.07;49.45;;;18.00;60.10;;;;;;5017526;27;87347;-46
2023/03/10 01:19:53;;;;;;;74.75;49.63;;;17.90;60.00;;;;;;5023720;27;85495;-47
2023/03/10 01:22:19;;;;;;;73.55;49.25;;;17.90;60.10;;;;;;5019190;27;86305;-46
2023/03/10 01:24:45;;;;;;;74.93;49.65;;;17.90;60.20;;;;;;5019916;27;86209;-49
2023/03/10 01:27:10;;;;;;;75.30;49.85;;;17.90;60.10;;;;;;5019158;27;86523;-47
2023/03/10 01:29:36;;;;;;;75.05;49.65;;;17.90;60.20;;;;;;5026365;27;85889;-50
2023/03/10 01:32:02;;;;;;;75.20;49.65;;;17.90;60.30;;;;;;5019001;27;87191;-50
2023/03/10 01:34:27;;;;;;;76.05;49.65;;;17.90;60.40;;;;;;5025455;27;87090;-49
2023/03/10 01:36:53;;;;;;;74.10;49.25;;;17.80;60.40;;;;;;5024375;27;87401;-48
2023/03/10 01:39:19;;;;;;;74.38;49.55;;;17.80;60.40;;;;;;5025489;27;88023;-49
2023/03/10 01:41:44;;;;;;;76.72;50.03;;;17.80;60.40;;;;;;5018882;27;86297;-52
2023/03/10 01:44:18;;;;;;;74.45;49.78;;;17.80;60.60;;;;;;5025596;27;85699;-50
2023/03/10 01:46:54;;;;;;;75.20;49.55;;;17.70;60.60;;;;;;5021300;27;86775;-51
2023/03/10 01:49:44;;;;;;;75.25;49.78;;;17.80;60.70;;;;;;5021872;27;86052;-48
2023/03/10 01:52:22;;;;;;;74.90;49.55;;;17.70;60.80;;;;;;5012191;27;90253;-49
2023/03/10 01:54:48;;;;;;;76.00;49.92;;;17.70;60.70;;;;;;5018713;27;86019;-47
2023/03/10 01:57:15;;;;;;;75.55;49.63;;;17.70;60.70;;;;;;5009693;27;88094;-51
2023/03/10 01:59:41;;;;;;;75.45;49.63;;;17.70;60.80;;;;;;5009307;27;87042;-50
2023/03/10 02:02:08;;;;;;;75.30;49.67;;;17.70;60.80;;;;;;5007226;27;88113;-47
2023/03/10 02:04:39;;;;;;;77.13;49.65;;;17.70;60.90;;;;;;5022919;27;87224;-50
2023/03/10 02:07:06;;;;;;;76.70;49.77;;;17.60;60.90;;;;;;5020866;27;85413;-47
2023/03/10 02:09:35;;;;;;;74.75;49.60;;;17.60;61.00;;;;;;5018136;27;85299;-49
2023/03/10 02:12:02;;;;;;;74.50;49.28;;;17.60;60.90;;;;;;5023331;27;86419;-52
2023/03/10 02:14:30;;;;;;;74.95;49.88;;;17.60;61.00;;;;;;5020925;27;85897;-48
2023/03/10 02:16:56;;;;;;;74.22;49.55;;;17.60;61.00;;;;;;5022253;27;86453;-48
2023/03/10 02:19:38;;;;;;;76.47;49.67;;;17.50;61.60;;;;;;5019586;27;86618;-48
2023/03/10 02:22:10;;;;;;;74.78;49.50;;;17.50;61.00;;;;;;5016896;27;86050;-51
2023/03/10 02:24:42;;;;;;;76.00;49.85;;;17.50;61.00;;;;;;5020978;27;85822;-47
2023/03/10 02:27:23;;;;;;;73.68;49.47;;;17.60;61.10;;;;;;5020178;27;86367;-47
2023/03/10 02:30:24;;;;;;;76.35;49.33;;;17.50;61.00;;;;;;5024408;27;85516;-46
2023/03/10 02:32:54;;;;;;;74.35;49.38;;;17.50;61.00;;;;;;5012438;27;87003;-49
2023/03/10 02:35:20;;;;;;;74.97;49.70;;;17.50;61.10;;;;;;5019447;27;87611;-47
2023/03/10 02:37:46;;;;;;;75.88;49.38;;;17.50;61.00;;;;;;5021655;27;86239;-48
2023/03/10 02:40:30;;;;;;;75.13;49.72;;;17.40;61.10;;;;;;5018514;27;86958;-48
2023/03/10 02:43:01;;;;;;;74.32;49.53;;;17.50;61.20;;;;;;5018586;27;87259;-48
2023/03/10 02:45:29;;;;;;;74.80;49.40;;;17.50;61.20;;;;;;5019752;27;86214;-48
2023/03/10 02:47:55;;;;;;;74.68;49.42;;;17.40;61.30;;;;;;5018854;27;85445;-50
2023/03/10 02:50:22;;;;;;;77.95;49.85;;;17.40;61.10;;;;;;5023496;27;85949;-49
2023/03/10 02:52:58;;;;;;;76.47;49.30;;;17.40;61.20;;;;;;5010908;27;87039;-47
2023/03/10 02:55:24;;;;;;;75.53;49.53;;;17.40;61.20;;;;;;5013403;27;87276;-51
2023/03/10 02:57:50;;;;;;;72.97;49.20;;;17.40;61.30;;;;;;5022395;27;86387;-50
2023/03/10 03:00:16;;;;;;;74.15;49.38;;;17.40;61.20;;;;;;5012798;27;91003;-47
2023/03/10 03:02:41;;;;;;;75.30;49.95;;;17.40;61.30;;;;;;5007635;27;89801;-50
2023/03/10 03:05:07;;;;;;;74.88;49.80;;;17.40;61.20;;;;;;5016290;27;87121;-49
2023/03/10 03:07:33;;;;;;;74.88;49.33;;;17.30;61.20;;;;;;5021235;27;85460;-49
2023/03/10 03:09:58;;;;;;;75.35;49.67;;;17.30;61.40;;;;;;5014917;27;86240;-50
2023/03/10 03:12:24;;;;;;;74.13;49.58;;;17.30;61.30;;;;;;5021584;27;86038;-50
2023/03/10 03:14:50;;;;;;;74.22;49.60;;;17.30;61.20;;;;;;5023454;27;86904;-47
2023/03/10 03:17:15;;;;;;;74.53;49.72;;;17.30;61.30;;;;;;5024080;27;85774;-49
2023/03/10 03:19:41;;;;;;;74.45;49.35;;;17.30;61.30;;;;;;5016404;27;86815;-49
2023/03/10 03:22:07;;;;;;;75.90;49.25;;;17.30;61.40;;;;;;5018629;27;86942;-49
2023/03/10 03:24:32;;;;;;;74.30;49.38;;;17.30;61.40;;;;;;5023187;27;86748;-51
2023/03/10 03:26:58;;;;;;;74.40;49.40;;;17.30;61.50;;;;;;5018028;27;86169;-52
2023/03/10 03:29:24;;;;;;;73.00;49.20;;;17.20;61.50;;;;;;5016132;27;85756;-53
2023/03/10 03:31:49;;;;;;;74.80;49.78;;;17.20;61.50;;;;;;5015634;27;87073;-50
2023/03/10 03:34:19;;;;;;;74.40;49.53;;;17.20;61.60;;;;;;5016564;27;88151;-49
2023/03/10 03:36:45;;;;;;;73.65;49.22;;;17.20;61.50;;;;;;5020857;27;86496;-47
2023/03/10 03:39:12;;;;;;;73.97;49.33;;;17.20;61.60;;;;;;5022111;27;86330;-50
2023/03/10 03:41:37;;;;;;;75.40;49.42;;;17.20;61.60;;;;;;5015532;27;86818;-51
2023/03/10 03:44:03;;;;;;;75.60;49.53;;;17.20;61.60;;;;;;5018305;27;86345;-49
2023/03/10 03:46:29;;;;;;;75.25;49.40;;;17.20;61.70;;;;;;5017697;27;85886;-48
2023/03/10 03:48:55;;;;;;;74.50;49.47;;;17.10;61.50;;;;;;5021136;27;85729;-50
2023/03/10 03:51:20;;;;;;;74.88;49.47;;;17.10;61.70;;;;;;5013863;27;86146;-51
2023/03/10 03:53:46;;;;;;;75.32;49.38;;;17.10;61.70;;;;;;5018505;27;91032;-48
2023/03/10 03:56:11;;;;;;;73.63;49.40;;;17.10;61.70;;;;;;5023727;27;85809;-51
2023/03/10 03:58:37;;;;;;;73.50;49.42;;;17.00;61.80;;;;;;5018435;27;86252;-48
2023/03/10 04:01:03;;;;;;;74.72;49.45;;;17.00;62.60;;;;;;5010819;27;86024;-47
2023/03/10 04:03:29;;;;;;;74.80;49.30;;;17.00;61.80;;;;;;5005142;27;86450;-48
2023/03/10 04:05:54;;;;;;;74.80;49.17;;;17.00;61.80;;;;;;5020861;27;85508;-47
2023/03/10 04:08:20;;;;;;;74.50;49.33;;;17.00;61.90;;;;;;5019258;27;85119;-47
2023/03/10 04:10:53;;;;;;;75.85;49.65;;;17.00;62.00;;;;;;5019252;27;85238;-48
2023/03/10 04:13:19;;;;;;;76.78;49.78;;;17.00;61.90;;;;;;5018306;27;86154;-49
2023/03/10 04:15:45;;;;;;;74.95;49.65;;;17.00;62.00;;;;;;5021493;27;86195;-48
2023/03/10 04:18:11;;;;;;;73.30;49.15;;;16.90;61.90;;;;;;5017716;27;87632;-48
2023/03/10 04:20:37;;;;;;;74.07;49.53;;;17.00;62.00;;;;;;5020595;27;85932;-47
2023/03/10 04:23:03;;;;;;;74.90;49.63;;;17.00;62.00;;;;;;5021938;27;86771;-50
2023/03/10 04:25:29;;;;;;;73.72;49.22;;;16.90;61.90;;;;;;5018081;27;91025;-47
2023/03/10 04:27:56;;;;;;;74.50;49.38;;;17.00;62.10;;;;;;5014833;27;87016;-46
2023/03/10 04:30:27;;;;;;;74.88;49.63;;;16.90;62.10;;;;;;5015918;27;85693;-51
2023/03/10 04:32:59;;;;;;;74.85;49.63;;;16.90;62.10;;;;;;5008868;27;86430;-48
2023/03/10 04:35:24;;;;;;;75.00;49.75;;;16.90;62.20;;;;;;5018383;27;89302;-48
2023/03/10 04:37:50;;;;;;;74.47;49.42;;;16.90;62.10;;;;;;5017309;27;85277;-46
2023/03/10 04:40:16;;;;;;;73.78;49.35;;;16.90;62.20;;;;;;5015901;27;85633;-49
2023/03/10 04:42:42;;;;;;;74.78;49.40;;;16.80;62.10;;;;;;5018411;27;85407;-47
2023/03/10 04:45:08;;;;;;;76.50;49.95;;;16.80;62.30;;;;;;5015548;27;87229;-50
2023/03/10 04:47:34;;;;;;;74.32;49.47;;;16.90;62.40;;;;;;5015320;27;85737;-47
2023/03/10 04:49:59;;;;;;;73.70;49.28;;;16.80;62.40;;;;;;5013724;27;86317;-50
2023/03/10 04:52:25;;;;;;;75.13;49.65;;;16.80;62.30;;;;;;5010234;27;86179;-48
2023/03/10 04:54:51;;;;;;;74.13;49.75;;;16.80;62.30;;;;;;5017635;27;85525;-47
2023/03/10 04:57:16;;;;;;;75.60;49.45;;;16.80;62.40;;;;;;5005264;27;88695;-49
2023/03/10 04:59:42;;;;;;;75.28;49.50;;;16.80;62.50;;;;;;5017318;27;86109;-48
2023/03/10 05:02:08;;;;;;;74.47;49.83;;;16.80;62.50;;;;;;5004740;27;87280;-48
2023/03/10 05:04:34;;;;;;;74.63;49.63;;;16.80;62.40;;;;;;5018162;27;89981;-46
2023/03/10 05:07:00;;;;;;;74.55;49.42;;;16.80;63.10;;;;;;5022026;27;85624;-47
2023/03/10 05:09:26;;;;;;;74.68;49.22;;;16.80;62.50;;;;;;5020654;27;87381;-49
2023/03/10 05:11:51;;;;;;;74.00;49.53;;;16.70;62.50;;;;;;5026541;27;85052;-47
2023/03/10 05:14:17;;;;;;;74.90;49.45;;;16.70;62.40;;;;;;5021025;27;86476;-48
2023/03/10 05:16:45;;;;;;;76.57;49.42;;;16.70;62.40;;;;;;5013386;27;85178;-47
2023/03/10 05:19:11;;;;;;;74.05;49.33;;;16.70;62.70;;;;;;5010363;27;87728;-52
2023/03/10 05:21:36;;;;;;;73.28;49.25;;;16.70;62.50;;;;;;5014846;27;90808;-49
2023/03/10 05:24:02;;;;;;;73.60;49.30;;;16.70;62.70;;;;;;5023444;27;88443;-49
2023/03/10 05:26:29;;;;;;;73.88;49.47;;;16.70;62.70;;;;;;5004994;28;86063;-47
2023/03/10 05:28:55;;;;;;;73.40;49.08;;;16.70;62.70;;;;;;5012023;27;86080;-48
2023/03/10 05:31:24;;;;;;;73.82;49.17;;;16.60;62.80;;;;;;5012650;27;85904;-48
2023/03/10 05:33:52;;;;;;;74.43;49.03;;;16.60;62.80;;;;;;5015714;27;86736;-48
2023/03/10 05:36:18;;;;;;;75.30;49.47;;;16.60;63.00;;;;;;5019852;27;85863;-51
2023/03/10 05:38:43;;;;;;;74.60;49.33;;;16.60;63.00;;;;;;5026217;27;85441;-53
2023/03/10 05:41:10;;;;;;;73.05;49.22;;;16.60;63.10;;;;;;5015650;27;89418;-50
2023/03/10 05:43:37;;;;;;;75.80;49.65;;;16.60;63.10;;;;;;5014648;27;85599;-48
2023/03/10 05:46:03;;;;;;;75.50;49.58;;;16.60;63.20;;;;;;5016660;27;86733;-47
2023/03/10 05:48:29;;;;;;;74.68;49.47;;;16.60;63.30;;;;;;5008663;27;91784;-49
2023/03/10 05:50:59;;;;;;;74.13;49.28;;;16.60;63.10;;;;;;5003710;27;90086;-48
2023/03/10 05:53:26;;;;;;;75.03;49.72;;;16.60;63.10;;;;;;5020104;27;95888;-49
2023/03/10 05:55:52;;;;;;;74.25;49.20;;;16.60;63.10;;;;;;5023724;27;89669;-51
2023/03/10 05:58:18;;;;;;;74.30;49.65;;;16.60;63.30;;;;;;5013682;27;94396;-46
2023/03/10 06:00:44;;;;;;;74.88;49.55;;;16.60;63.20;;;;;;5010959;27;90939;-48
2023/03/10 06:03:10;;;;;;;74.05;49.45;;;16.60;63.30;;;;;;5009254;27;91039;-48
2023/03/10 06:05:35;;;;;;;77.28;49.38;;;16.60;63.30;;;;;;5015967;27;91305;-49
2023/03/10 06:08:01;;;;;;;74.13;49.17;;;16.50;63.30;;;;;;5015058;27;90782;-47
2023/03/10 06:10:27;;;;;;;73.25;49.50;;;16.60;63.30;;;;;;5011910;27;90563;-47
2023/03/10 06:12:54;;;;;;;76.00;49.53;;;16.50;63.40;;;;;;5015870;27;90003;-50
2023/03/10 06:15:20;;;;;;;76.10;49.63;;;16.50;63.50;;;;;;5023583;27;89320;-50
2023/03/10 06:17:45;;;;;;;76.03;49.70;;;16.50;63.40;;;;;;5015014;27;90327;-49
2023/03/10 06:20:11;;;;;;;73.97;49.30;;;16.50;63.40;;;;;;5019497;27;90048;-50
2023/03/10 06:22:37;;;;;;;72.70;49.33;;;16.50;63.40;;;;;;5012297;27;92700;-47
2023/03/10 06:25:03;;;;;;;76.45;49.42;;;16.50;63.50;;;;;;5020348;27;90014;-47
2023/03/10 06:27:30;;;;;;;73.78;49.15;;;16.60;63.30;;;;;;5016751;27;91339;-47
2023/03/10 06:29:56;;;;;;;76.63;49.33;;;16.50;63.30;;;;;;5020285;27;91559;-47
2023/03/10 06:32:21;;;;;;;76.72;49.75;;;16.50;63.30;;;;;;5009773;27;94932;-51
2023/03/10 06:34:47;;;;;;;75.70;49.40;;;16.50;63.40;;;;;;5008673;27;90717;-51
2023/03/10 06:37:13;;;;;;;74.20;49.38;;;16.50;63.50;;;;;;5013944;27;92555;-48
2023/03/10 06:39:39;;;;;;;76.53;49.90;;;16.50;63.50;;;;;;5015536;27;90970;-48
2023/03/10 06:42:05;;;;;;;73.60;49.22;;;16.50;63.60;;;;;;5013652;27;90510;-48
2023/03/10 06:44:31;;;;;;;74.82;50.00;;;16.40;63.50;;;;;;5004943;27;90908;-46
2023/03/10 06:46:57;;;;;;;73.53;49.47;;;16.40;63.50;;;;;;5009729;27;94059;-49
2023/03/10 06:49:28;;;;;;;75.20;49.25;;;16.40;63.50;;;;;;5013498;27;90858;-46
2023/03/10 06:51:54;;;;;;;75.75;49.40;;;16.40;63.40;;;;;;5016979;27;90013;-47
2023/03/10 06:54:21;;;;;;;76.53;49.88;;;16.40;63.30;;;;;;5021872;27;89886;-47
2023/03/10 06:56:48;;;;;;;75.03;49.80;;;16.40;63.40;;;;;;5022187;27;96017;-49
2023/03/10 06:59:14;;;;;;;74.60;49.58;;;16.50;63.30;;;;;;5016841;27;90046;-47
2023/03/10 07:01:40;;;;;;;76.88;49.70;;;16.40;63.30;;;;;;5000106;27;95827;-48
2023/03/10 07:04:05;;;;;;;75.13;49.45;;;16.40;63.40;;;;;;5001964;27;90519;-49
2023/03/10 07:06:31;;;;;;;75.32;49.83;;;16.40;63.40;;;;;;5011507;27;91061;-51
2023/03/10 07:08:57;;;;;;;74.43;49.70;;;16.40;63.40;;;;;;5012348;27;96123;-48
2023/03/10 07:11:24;;;;;;;74.45;49.70;;;16.50;63.30;;;;;;5005981;27;92370;-49
2023/03/10 07:13:50;;;;;;;78.53;50.30;;;16.50;63.20;;;;;;5001423;27;89697;-49
2023/03/10 07:16:16;;;;;;;76.57;50.15;;;16.50;63.90;;;;;;5006540;27;91413;-49
2023/03/10 07:18:42;;;;;;;75.40;49.72;;;16.50;64.60;;;;;;5018501;27;91149;-51
2023/03/10 07:21:10;;;;;;;75.43;49.60;;;16.50;64.10;;;;;;5015723;27;91344;-50
2023/03/10 07:23:36;;;;;;;75.88;50.08;;;16.50;64.00;;;;;;5009059;27;91747;-53
2023/03/10 07:26:06;;;;;;;80.28;50.08;;;16.50;64.00;;;;;;5013667;27;90655;-48
2023/03/10 07:28:33;;;;;;;76.50;49.90;;;16.60;64.20;;;;;;5014555;27;89981;-49
2023/03/10 07:31:02;;;;;;;76.50;50.03;;;16.50;64.50;;;;;;5017369;27;91093;-51
2023/03/10 07:33:28;;;;;;;75.50;49.95;;;16.50;64.30;;;;;;5017470;27;89568;-50
2023/03/10 07:35:54;;;;;;;76.47;50.22;;;16.50;64.40;;;;;;5019477;27;97212;-47
2023/03/10 07:38:19;;;;;;;78.65;50.67;;;16.60;64.10;;;;;;5019740;27;90745;-47
2023/03/10 07:40:45;;;;;;;79.55;50.05;;;16.60;64.00;;;;;;5018533;27;90378;-50
2023/03/10 07:43:11;;;;;;;74.15;49.65;;;16.70;64.00;;;;;;5019915;27;90173;-48
2023/03/10 07:45:37;;;;;;;76.95;50.20;;;16.80;63.90;;;;;;5018855;27;91137;-46
2023/03/10 07:48:03;;;;;;;78.47;50.30;;;16.80;63.80;;;;;;5000914;27;90495;-46
2023/03/10 07:50:29;;;;;;;75.35;49.90;;;16.80;63.80;;;;;;5001172;27;93171;-48
2023/03/10 07:52:55;;;;;;;76.53;50.13;;;16.90;63.60;;;;;;5015591;27;90143;-48
2023/03/10 07:55:21;;;;;;;77.68;49.85;;;16.80;63.60;;;;;;5009664;27;90178;-47
2023/03/10 07:57:47;;;;;;;76.20;50.08;;;16.70;64.00;;;;;;4993909;27;96116;-47
2023/03/10 08:00:14;;;;;;;79.22;50.03;;;16.60;64.30;;;;;;5004664;27;93533;-49
2023/03/10 08:02:40;;;;;;;76.95;50.20;;;16.60;64.30;;;;;;5020159;27;90035;-48
2023/03/10 08:05:07;;;;;;;77.15;49.85;;;16.70;63.90;;;;;;5011754;27;90834;-47
2023/03/10 08:07:32;;;;;;;76.53;50.10;;;16.80;63.40;;;;;;5008879;27;94726;-51
2023/03/10 08:09:58;;;;;;;80.13;51.03;;;16.80;63.00;;;;;;5004868;27;93478;-48
2023/03/10 08:12:24;;;;;;;81.30;50.65;;;16.80;62.80;;;;;;5008524;27;96031;-48
2023/03/10 08:14:50;;;;;;;81.05;50.38;;;17.00;62.30;;;;;;5003575;27;95300;-48
2023/03/10 08:17:16;;;;;;;82.60;51.15;;;16.90;62.20;;;;;;5015515;27;90102;-48
2023/03/10 08:19:42;;;;;;;80.78;50.63;;;16.90;62.20;;;;;;5017679;27;90164;-48
2023/03/10 08:22:09;;;;;;;80.30;51.03;;;17.30;61.10;;;;;;5019421;27;89869;-48
2023/03/10 08:24:36;;;;;;;77.85;50.67;;;17.60;59.90;;;;;;5014508;27;92018;-50
2023/03/10 08:27:02;;;;;;;82.82;50.72;;;17.40;60.10;;;;;;5017398;27;91392;-48
2023/03/10 08:29:28;;;;;;;81.63;50.92;;;17.40;60.60;;;;;;5018621;27;89786;-48
2023/03/10 08:31:53;;;;;;;79.03;51.35;;;17.40;60.70;;;;;;5004402;27;90641;-48
2023/03/10 08:34:19;;;;;;;83.88;51.42;;;17.50;60.70;;;;;;5003958;27;90204;-48
2023/03/10 08:36:45;;;;;;;82.35;51.45;;;17.70;59.70;;;;;;5013726;27;91281;-48
2023/03/10 08:39:11;;;;;;;81.50;51.15;;;17.80;59.10;;;;;;5013259;27;91403;-50
2023/03/10 08:41:41;;;;;;;80.53;51.60;;;17.90;58.90;;;;;;5017083;27;88994;-49
2023/03/10 08:44:07;;;;;;;83.10;51.80;;;18.00;58.40;;;;;;5010280;27;91854;-48
2023/03/10 08:46:33;;;;;;;79.97;50.58;;;17.90;58.50;;;;;;4989001;28;90223;-47
2023/03/10 08:49:00;;;;;;;78.80;50.45;;;18.00;58.30;;;;;;5009267;27;92691;-49
2023/03/10 08:51:26;;;;;;;81.68;50.92;;;18.00;58.20;;;;;;5018011;27;90322;-49
2023/03/10 08:53:53;;;;;;;83.32;50.92;;;17.90;58.30;;;;;;5015053;27;91111;-48
2023/03/10 08:56:21;;;;;;;80.82;50.80;;;18.10;58.10;;;;;;5003662;27;91496;-48
2023/03/10 08:58:47;;;;;;;79.93;51.05;;;18.00;58.30;;;;;;5007883;27;91644;-49
2023/03/10 09:01:14;;;;;;;86.20;51.40;;;17.90;58.90;;;;;;4997355;27;96700;-49
2023/03/10 09:03:42;;;;;;;80.53;51.10;;;17.90;59.00;;;;;;5002201;27;96245;-47
2023/03/10 09:06:08;;;;;;;80.78;51.35;;;18.00;58.90;;;;;;5005265;27;90346;-48
2023/03/10 09:08:34;;;;;;;81.75;50.85;;;18.10;58.70;;;;;;5007608;27;89898;-50
2023/03/10 09:11:00;;;;;;;84.47;51.83;;;18.10;58.90;;;;;;5006751;27;90414;-53
2023/03/10 09:13:26;;;;;;;82.43;51.40;;;18.10;58.70;;;;;;5004026;27;91266;-51
2023/03/10 09:15:52;;;;;;;82.80;51.55;;;18.20;58.60;;;;;;5009493;27;92865;-49
2023/03/10 09:18:18;;;;;;;81.72;51.42;;;18.20;58.60;;;;;;5013649;27;90747;-47
2023/03/10 09:20:45;;;;;;;82.95;51.72;;;18.30;58.70;;;;;;5009388;27;90160;-47
2023/03/10 09:23:12;;;;;;;85.10;51.88;;;18.10;59.50;;;;;;5001066;28;91109;-45
2023/03/10 09:25:40;;;;;;;82.43;51.05;;;18.10;59.50;;;;;;5012045;27;89984;-47
2023/03/10 09:28:08;;;;;;;83.50;51.38;;;18.20;59.20;;;;;;4991353;27;92692;-47
2023/03/10 09:30:36;;;;;;;83.18;51.47;;;18.30;58.80;;;;;;5005320;27;90037;-49
2023/03/10 09:33:06;;;;;;;78.18;50.88;;;18.20;59.00;;;;;;5002960;27;91114;-47
2023/03/10 09:35:32;;;;;;;84.82;50.90;;;18.10;59.70;;;;;;5007800;27;90373;-51
2023/03/10 09:37:58;;;;;;;86.60;51.58;;;18.00;60.50;;;;;;5001950;27;90965;-48
2023/03/10 09:40:24;;;;;;;84.35;52.10;;;18.10;60.30;;;;;;5009246;27;90731;-47
2023/03/10 09:43:00;;;;;;;82.10;51.35;;;18.20;60.40;;;;;;5006961;27;91378;-50
2023/03/10 09:45:48;;;;;;;85.82;51.60;;;18.20;60.00;;;;;;5006665;27;92082;-51
2023/03/10 09:48:44;;;;;;;78.90;50.75;;;18.20;60.00;;;;;;5004411;27;90041;-52
2023/03/10 09:51:38;;;;;;;83.18;51.20;;;18.00;60.20;;;;;;5015429;27;90024;-47
2023/03/10 09:54:26;;;;;;;80.88;51.22;;;18.00;60.40;;;;;;5010775;27;91355;-49
2023/03/10 09:56:53;;;;;;;79.43;50.50;;;18.10;60.20;;;;;;5001592;28;90804;-50
2023/03/10 09:59:34;;;;;;;81.75;50.67;;;18.10;60.00;;;;;;5008461;27;91264;-52
2023/03/10 10:02:02;;;;;;;79.57;50.43;;;18.10;59.80;;;;;;5007481;27;92341;-49
2023/03/10 10:04:40;;;;;;;76.22;50.03;;;18.10;59.80;;;;;;5008639;27;92435;-51
2023/03/10 10:07:16;;;;;;;80.72;51.08;;;18.20;59.50;;;;;;5002643;27;91958;-50
2023/03/10 10:09:55;;;;;;;81.57;50.55;;;18.30;59.20;;;;;;4998221;27;96179;-52
2023/03/10 10:12:24;;;;;;;78.40;50.58;;;18.10;59.80;;;;;;5017205;27;90228;-48
2023/03/10 10:14:57;;;;;;;83.32;50.55;;;18.10;60.60;;;;;;5010589;27;91411;-50
2023/03/10 10:17:46;;;;;;;77.53;50.45;;;18.10;60.90;;;;;;5016414;27;91177;-47
2023/03/10 10:20:26;;;;;;;76.20;50.47;;;18.10;60.90;;;;;;5003094;27;90270;-48
2023/03/10 10:22:51;;;;;;;75.82;50.03;;;18.10;61.10;;;;;;5002736;27;90811;-50
2023/03/10 10:25:20;;;;;;;75.57;49.63;;;18.10;61.20;;;;;;5010440;27;91290;-50
2023/03/10 10:27:50;;;;;;;75.97;50.13;;;18.10;60.90;;;;;;5016154;27;89956;-47
2023/03/10 10:30:38;;;;;;;78.10;50.30;;;18.10;60.90;;;;;;5000749;27;96995;-54
2023/03/10 10:33:14;;;;;;;81.93;50.45;;;18.20;61.00;;;;;;5007120;27;90253;-50
2023/03/10 10:35:43;;;;;;;74.97;49.67;;;18.20;60.30;;;;;;5006033;27;91301;-53
2023/03/10 10:38:09;;;;;;;76.45;50.30;;;18.20;59.90;;;;;;5009177;27;95495;-47
2023/03/10 10:41:00;;;;;;;80.15;50.38;;;18.20;59.80;;;;;;5014990;27;89790;-49
2023/03/10 10:43:25;;;;;;;77.50;50.00;;;18.10;60.20;;;;;;5010475;27;91844;-50
2023/03/10 10:45:57;;;;;;;78.22;50.20;;;18.10;60.20;;;;;;5017558;27;91223;-50
2023/03/10 10:48:45;;;;;;;75.78;50.22;;;18.10;60.00;;;;;;5022951;27;91416;-47
2023/03/10 10:51:27;;;;;;;79.88;50.15;;;18.10;59.80;;;;;;5018411;27;90178;-48
2023/03/10 10:53:57;;;;;;;77.70;50.25;;;18.10;59.80;;;;;;5022255;27;92034;-48
2023/03/10 10:56:23;;;;;;;76.68;49.78;;;18.10;59.50;;;;;;5013639;27;92354;-50
2023/03/10 10:59:00;;;;;;;79.15;50.22;;;18.10;59.40;;;;;;5014999;27;91701;-50
2023/03/10 11:01:26;;;;;;;76.68;49.95;;;18.10;59.60;;;;;;5011725;27;89918;-50
2023/03/10 11:04:04;;;;;;;75.07;50.05;;;18.00;59.60;;;;;;5009430;27;90418;-49
2023/03/10 11:06:33;;;;;;;75.00;49.60;;;18.00;59.50;;;;;;5018514;27;90200;-48
2023/03/10 11:09:10;;;;;;;74.57;49.50;;;17.90;59.70;;;;;;5013718;27;90320;-48
2023/03/10 11:12:18;;;;;;;76.40;49.92;;;17.90;59.50;;;;;;5019953;27;90951;-51
2023/03/10 11:14:48;;;;;;;75.95;49.60;;;17.80;59.60;;;;;;5002450;28;89413;-48
2023/03/10 11:17:24;;;;;;;75.53;49.85;;;17.90;59.70;;;;;;5021785;27;90649;-52
2023/03/10 11:19:55;;;;;;;75.18;49.58;;;17.80;59.70;;;;;;5018759;27;91035;-49
2023/03/10 11:22:56;;;;;;;77.82;50.00;;;17.70;60.30;;;;;;5018672;27;90796;-46
2023/03/10 11:25:31;;;;;;;73.90;49.35;;;17.60;61.40;;;;;;5014087;27;90092;-46
2023/03/10 11:28:17;;;;;;;73.47;49.22;;;17.70;61.50;;;;;;5020612;27;91202;-46
2023/03/10 11:31:12;;;;;;;76.07;49.33;;;17.80;61.10;;;;;;5023380;27;90295;-52
2023/03/10 11:33:53;;;;;;;74.88;49.15;;;17.80;61.00;;;;;;5020950;27;90239;-46
2023/03/10 11:36:43;;;;;;;74.18;49.55;;;17.80;60.30;;;;;;5017253;27;89751;-45
2023/03/10 11:39:26;;;;;;;75.18;49.42;;;17.90;59.80;;;;;;5017349;27;91226;-50
2023/03/10 11:42:15;;;;;;;76.80;49.58;;;17.90;59.70;;;;;;5020141;27;91098;-48
2023/03/10 11:45:22;;;;;;;76.88;49.28;;;17.70;60.00;;;;;;5018221;27;89908;-46
2023/03/10 11:47:59;;;;;;;72.88;48.97;;;17.90;59.40;;;;;;4958903;28;90462;-46
2023/03/10 11:50:40;;;;;;;72.03;48.90;;;18.00;59.90;;;;;;5010291;27;92331;-45
2023/03/10 11:53:29;;;;;;;71.70;48.83;;;18.10;59.30;;;;;;5020321;27;91810;-46
2023/03/10 11:55:56;;;;;;;73.15;48.90;;;18.00;59.10;;;;;;5014619;27;90252;-45
2023/03/10 11:58:45;;;;;;;72.68;48.97;;;17.90;59.80;;;;;;5013599;27;90302;-51
2023/03/10 12:01:18;;;;;;;73.03;49.10;;;17.70;61.20;;;;;;5009098;27;91437;-50
2023/03/10 12:03:53;;;;;;;75.50;49.05;;;17.70;61.30;;;;;;5006057;27;91012;-47
2023/03/10 12:06:34;;;;;;;76.82;49.08;;;17.60;62.30;;;;;;5018393;27;90708;-45
2023/03/10 12:09:01;;;;;;;72.90;48.92;;;17.80;62.70;;;;;;5020426;27;88898;-46
2023/03/10 12:11:28;;;;;;;73.32;49.05;;;17.80;62.90;;;;;;5017740;27;91319;-50
2023/03/10 12:14:00;;;;;;;74.68;49.05;;;17.60;63.20;;;;;;5021515;27;89961;-48
2023/03/10 12:16:31;;;;;;;74.47;49.17;;;17.50;63.40;;;;;;5017582;27;91413;-46
2023/03/10 12:18:57;;;;;;;71.90;48.88;;;17.50;62.90;;;;;;5023368;27;90152;-48
2023/03/10 12:21:28;;;;;;;77.18;49.15;;;17.50;62.80;;;;;;5018862;27;91102;-48
2023/03/10 12:23:58;;;;;;;75.13;49.05;;;17.50;62.20;;;;;;5013950;27;90071;-45
2023/03/10 12:26:43;;;;;;;74.97;48.93;;;17.50;62.10;;;;;;5018667;27;89940;-46
2023/03/10 12:29:21;;;;;;;73.63;49.08;;;17.40;62.10;;;;;;5020796;27;90101;-47
2023/03/10 12:31:50;;;;;;;71.68;48.80;;;17.40;61.70;;;;;;5012611;27;93119;-46
2023/03/10 12:34:21;;;;;;;73.05;48.85;;;17.40;61.30;;;;;;5015113;27;91306;-49
2023/03/10 12:36:50;;;;;;;72.03;48.80;;;17.30;61.40;;;;;;5016547;27;93149;-48
2023/03/10 12:39:27;;;;;;;72.97;48.95;;;17.40;61.50;;;;;;5014080;27;90420;-46